createdAt,value
2023-04-09T00:00:03.556Z,458.12
2023-04-09T00:00:14.640Z,458.12
2023-04-09T00:00:26.588Z,458.12
2023-04-09T00:00:38.568Z,458.09
2023-04-09T00:00:49.572Z,458.10
2023-04-09T00:01:00.565Z,458.06
2023-04-09T00:01:11.547Z,458.08
2023-04-09T00:01:22.663Z,458.08
2023-04-09T00:01:34.673Z,458.10
2023-04-09T00:01:46.642Z,458.11
2023-04-09T00:01:58.687Z,458.08
2023-04-09T00:02:09.630Z,458.12
2023-04-09T00:02:20.635Z,458.10
2023-04-09T00:02:31.660Z,458.11
2023-04-09T00:02:43.647Z,458.15
2023-04-09T00:02:55.670Z,458.14
2023-04-09T00:03:07.808Z,458.18
2023-04-09T00:03:19.647Z,458.20
2023-04-09T00:03:30.627Z,458.23
2023-04-09T00:03:41.647Z,458.29
2023-04-09T00:03:52.638Z,458.29
2023-04-09T00:04:04.727Z,458.31
2023-04-09T00:04:16.707Z,458.34
2023-04-09T00:04:28.655Z,458.33
2023-04-09T00:04:40.669Z,458.34
2023-04-09T00:04:52.755Z,458.34
2023-04-09T00:05:03.578Z,458.34
2023-04-09T00:05:15.583Z,458.37
2023-04-09T00:05:26.608Z,458.33
2023-04-09T00:05:38.560Z,458.34
2023-04-09T00:05:49.599Z,458.40
2023-04-09T00:06:00.578Z,458.40
2023-04-09T00:06:11.615Z,458.40
2023-04-09T00:06:23.580Z,458.43
2023-04-09T00:06:34.575Z,458.49
2023-04-09T00:06:45.564Z,458.56
2023-04-09T00:06:56.583Z,458.51
2023-04-09T00:07:07.590Z,458.53
2023-04-09T00:07:18.588Z,458.58
2023-04-09T00:07:29.593Z,458.60
2023-04-09T00:07:43.242Z,458.61
2023-04-09T00:07:53.593Z,458.62
2023-04-09T00:08:04.572Z,458.68
2023-04-09T00:08:15.583Z,458.71
2023-04-09T00:08:26.582Z,458.74
2023-04-09T00:08:37.586Z,458.77
2023-04-09T00:08:48.577Z,458.75
2023-04-09T00:08:59.562Z,458.78
2023-04-09T00:09:10.562Z,458.83
2023-04-09T00:09:21.558Z,458.85
2023-04-09T00:09:32.647Z,458.88
2023-04-09T00:09:44.607Z,458.89
2023-04-09T00:09:55.602Z,458.86
2023-04-09T00:10:06.592Z,458.90
2023-04-09T00:10:17.591Z,458.89
2023-04-09T00:10:28.581Z,458.86
2023-04-09T00:10:39.595Z,458.87
2023-04-09T00:10:50.587Z,458.87
2023-04-09T00:11:01.581Z,458.87
2023-04-09T00:11:12.572Z,458.85
2023-04-09T00:11:23.597Z,458.89
2023-04-09T00:11:34.600Z,458.86
2023-04-09T00:11:45.601Z,458.89
2023-04-09T00:11:57.591Z,458.89
2023-04-09T00:12:08.607Z,458.89
2023-04-09T00:12:20.578Z,458.87
2023-04-09T00:12:31.563Z,458.89
2023-04-09T00:12:42.553Z,458.90
2023-04-09T00:12:53.572Z,458.90
2023-04-09T00:13:04.600Z,458.89
2023-04-09T00:13:16.972Z,458.91
2023-04-09T00:13:38.428Z,458.95
2023-04-09T00:13:40.141Z,458.95
2023-04-09T00:13:49.593Z,458.93
2023-04-09T00:14:00.596Z,458.97
2023-04-09T00:14:11.591Z,459.00
2023-04-09T00:14:22.592Z,459.01
2023-04-09T00:14:33.586Z,459.00
2023-04-09T00:14:44.594Z,459.03
2023-04-09T00:14:55.645Z,459.03
2023-04-09T00:15:11.059Z,459.03
2023-04-09T00:15:30.090Z,459.07
2023-04-09T00:15:32.111Z,459.06
2023-04-09T00:15:42.593Z,459.09
2023-04-09T00:15:53.634Z,459.13
2023-04-09T00:16:04.593Z,459.13
2023-04-09T00:16:15.630Z,459.15
2023-04-09T00:16:27.644Z,459.17
2023-04-09T00:16:39.663Z,459.16
2023-04-09T00:16:50.583Z,459.21
2023-04-09T00:17:01.596Z,459.21
2023-04-09T00:17:12.595Z,459.26
2023-04-09T00:17:23.627Z,459.30
2023-04-09T00:17:35.612Z,459.32
2023-04-09T00:17:47.606Z,459.34
2023-04-09T00:17:59.831Z,459.36
2023-04-09T00:18:11.595Z,459.37
2023-04-09T00:18:23.592Z,459.33
2023-04-09T00:18:34.586Z,459.36
2023-04-09T00:18:45.591Z,459.35
2023-04-09T00:18:56.591Z,459.35
2023-04-09T00:19:07.582Z,459.34
2023-04-09T00:19:18.692Z,459.33
2023-04-09T00:19:29.584Z,459.32
2023-04-09T00:19:40.578Z,459.31
2023-04-09T00:19:51.566Z,459.33
2023-04-09T00:20:02.586Z,459.38
2023-04-09T00:20:13.606Z,459.35
2023-04-09T00:20:24.589Z,459.37
2023-04-09T00:20:35.591Z,459.38
2023-04-09T00:20:46.585Z,459.37
2023-04-09T00:20:57.586Z,459.37
2023-04-09T00:21:08.628Z,459.36
2023-04-09T00:21:19.590Z,459.38
2023-04-09T00:21:30.587Z,459.37
2023-04-09T00:21:41.573Z,459.36
2023-04-09T00:21:52.571Z,459.35
2023-04-09T00:22:03.560Z,459.33
2023-04-09T00:22:14.575Z,459.34
2023-04-09T00:22:25.560Z,459.34
2023-04-09T00:22:36.560Z,459.33
2023-04-09T00:22:47.556Z,459.29
2023-04-09T00:22:58.548Z,459.27
2023-04-09T00:23:11.207Z,459.27
2023-04-09T00:23:20.641Z,459.23
2023-04-09T00:23:32.626Z,459.24
2023-04-09T00:23:43.610Z,459.22
2023-04-09T00:23:54.600Z,459.20
2023-04-09T00:24:05.605Z,459.19
2023-04-09T00:24:17.586Z,459.22
2023-04-09T00:24:28.584Z,459.23
2023-04-09T00:24:39.567Z,459.26
2023-04-09T00:24:50.583Z,459.30
2023-04-09T00:25:01.589Z,459.29
2023-04-09T00:25:12.571Z,459.32
2023-04-09T00:25:23.593Z,459.38
2023-04-09T00:25:35.580Z,459.37
2023-04-09T00:25:46.573Z,459.41
2023-04-09T00:25:57.573Z,459.43
2023-04-09T00:26:08.557Z,459.43
2023-04-09T00:26:19.570Z,459.43
2023-04-09T00:26:30.565Z,459.44
2023-04-09T00:26:41.568Z,459.43
2023-04-09T00:26:52.539Z,459.43
2023-04-09T00:27:03.650Z,459.44
2023-04-09T00:27:15.624Z,459.42
2023-04-09T00:27:26.616Z,459.44
2023-04-09T00:27:38.601Z,459.44
2023-04-09T00:27:49.576Z,459.44
2023-04-09T00:28:00.570Z,459.44
2023-04-09T00:28:11.582Z,459.49
2023-04-09T00:28:22.588Z,459.49
2023-04-09T00:28:33.585Z,459.49
2023-04-09T00:28:44.577Z,459.46
2023-04-09T00:28:55.576Z,459.43
2023-04-09T00:29:06.565Z,459.48
2023-04-09T00:29:17.561Z,459.47
2023-04-09T00:29:28.565Z,459.42
2023-04-09T00:29:39.564Z,459.39
2023-04-09T00:29:50.536Z,459.36
2023-04-09T00:30:01.615Z,459.32
2023-04-09T00:30:13.610Z,459.26
2023-04-09T00:30:25.579Z,459.23
2023-04-09T00:30:36.576Z,459.22
2023-04-09T00:30:47.590Z,459.22
2023-04-09T00:30:58.612Z,459.28
2023-04-09T00:31:09.596Z,459.32
2023-04-09T00:31:20.997Z,459.33
2023-04-09T00:31:32.686Z,459.32
2023-04-09T00:31:44.658Z,459.39
2023-04-09T00:31:56.622Z,459.39
2023-04-09T00:32:08.682Z,459.42
2023-04-09T00:32:19.600Z,459.45
2023-04-09T00:32:30.632Z,459.44
2023-04-09T00:32:42.605Z,459.47
2023-04-09T00:32:53.625Z,459.48
2023-04-09T00:33:05.632Z,459.47
2023-04-09T00:33:17.628Z,459.45
2023-04-09T00:33:29.610Z,459.46
2023-04-09T00:33:40.610Z,459.42
2023-04-09T00:33:51.576Z,459.43
2023-04-09T00:34:03.586Z,459.44
2023-04-09T00:34:14.582Z,459.46
2023-04-09T00:34:25.572Z,459.42
2023-04-09T00:34:36.566Z,459.44
2023-04-09T00:34:47.552Z,459.44
2023-04-09T00:34:58.549Z,459.44
2023-04-09T00:35:09.569Z,459.46
2023-04-09T00:35:20.572Z,459.49
2023-04-09T00:35:31.580Z,459.51
2023-04-09T00:35:42.657Z,459.52
2023-04-09T00:35:54.633Z,459.50
2023-04-09T00:36:06.639Z,459.49
2023-04-09T00:36:17.597Z,459.48
2023-04-09T00:36:29.603Z,459.54
2023-04-09T00:36:40.596Z,459.57
2023-04-09T00:36:51.589Z,459.53
2023-04-09T00:37:02.580Z,459.56
2023-04-09T00:37:13.574Z,459.55
2023-04-09T00:37:24.556Z,459.54
2023-04-09T00:37:35.563Z,459.57
2023-04-09T00:37:46.584Z,459.53
2023-04-09T00:37:57.601Z,459.52
2023-04-09T00:38:08.590Z,459.53
2023-04-09T00:38:19.582Z,459.56
2023-04-09T00:38:30.577Z,459.55
2023-04-09T00:38:41.624Z,459.56
2023-04-09T00:38:53.005Z,459.50
2023-04-09T00:39:03.569Z,459.45
2023-04-09T00:39:14.601Z,459.47
2023-04-09T00:39:25.586Z,459.43
2023-04-09T00:39:36.586Z,459.42
2023-04-09T00:39:48.580Z,459.47
2023-04-09T00:39:59.561Z,459.42
2023-04-09T00:40:10.573Z,459.44
2023-04-09T00:40:21.564Z,459.54
2023-04-09T00:40:32.586Z,459.48
2023-04-09T00:40:43.585Z,459.56
2023-04-09T00:40:54.578Z,459.53
2023-04-09T00:41:05.588Z,459.50
2023-04-09T00:41:16.606Z,459.51
2023-04-09T00:41:27.589Z,459.51
2023-04-09T00:41:38.579Z,459.49
2023-04-09T00:41:49.565Z,459.46
2023-04-09T00:42:00.555Z,459.36
2023-04-09T00:42:11.545Z,459.42
2023-04-09T00:42:22.545Z,459.47
2023-04-09T00:42:33.566Z,459.42
2023-04-09T00:42:44.586Z,459.43
2023-04-09T00:42:55.576Z,459.42
2023-04-09T00:43:06.574Z,459.43
2023-04-09T00:43:17.575Z,459.40
2023-04-09T00:43:28.581Z,459.40
2023-04-09T00:43:39.581Z,459.39
2023-04-09T00:43:50.571Z,459.42
2023-04-09T00:44:01.565Z,459.41
2023-04-09T00:44:12.553Z,459.46
2023-04-09T00:44:23.565Z,459.47
2023-04-09T00:44:34.580Z,459.44
2023-04-09T00:44:45.574Z,459.36
2023-04-09T00:44:56.572Z,459.39
2023-04-09T00:45:07.559Z,459.48
2023-04-09T00:45:18.640Z,459.47
2023-04-09T00:45:30.646Z,459.46
2023-04-09T00:45:41.603Z,459.41
2023-04-09T00:45:52.659Z,459.43
2023-04-09T00:46:03.639Z,459.51
2023-04-09T00:46:15.600Z,459.48
2023-04-09T00:46:26.617Z,459.54
2023-04-09T00:46:37.603Z,459.59
2023-04-09T00:46:48.602Z,459.63
2023-04-09T00:46:59.636Z,459.57
2023-04-09T00:47:11.602Z,459.59
2023-04-09T00:47:22.615Z,459.65
2023-04-09T00:47:33.612Z,459.72
2023-04-09T00:47:44.641Z,459.73
2023-04-09T00:47:56.636Z,459.62
2023-04-09T00:48:08.602Z,459.57
2023-04-09T00:48:20.594Z,459.56
2023-04-09T00:48:31.584Z,459.56
2023-04-09T00:48:42.578Z,459.59
2023-04-09T00:48:53.737Z,459.58
2023-04-09T00:49:05.588Z,459.61
2023-04-09T00:49:16.581Z,459.53
2023-04-09T00:49:27.591Z,459.61
2023-04-09T00:49:38.593Z,459.61
2023-04-09T00:49:49.594Z,459.62
2023-04-09T00:50:00.584Z,459.61
2023-04-09T00:50:11.625Z,459.54
2023-04-09T00:50:22.555Z,459.50
2023-04-09T00:50:33.557Z,459.48
2023-04-09T00:50:44.572Z,459.41
2023-04-09T00:50:55.582Z,459.43
2023-04-09T00:51:06.566Z,459.41
2023-04-09T00:51:17.575Z,459.38
2023-04-09T00:51:28.580Z,459.42
2023-04-09T00:51:39.573Z,459.46
2023-04-09T00:51:50.592Z,459.52
2023-04-09T00:52:01.587Z,459.54
2023-04-09T00:52:12.558Z,459.55
2023-04-09T00:52:23.559Z,459.56
2023-04-09T00:52:34.547Z,459.58
2023-04-09T00:52:45.615Z,459.57
2023-04-09T00:52:57.568Z,459.56
2023-04-09T00:53:08.570Z,459.59
2023-04-09T00:53:20.577Z,459.62
2023-04-09T00:53:31.580Z,459.66
2023-04-09T00:53:42.560Z,459.66
2023-04-09T00:53:53.572Z,459.67
2023-04-09T00:54:04.565Z,459.70
2023-04-09T00:54:15.563Z,459.69
2023-04-09T00:54:26.554Z,459.77
2023-04-09T00:54:37.560Z,459.72
2023-04-09T00:54:48.561Z,459.72
2023-04-09T00:54:59.570Z,459.72
2023-04-09T00:55:10.579Z,459.72
2023-04-09T00:55:21.593Z,459.77
2023-04-09T00:55:32.591Z,459.80
2023-04-09T00:55:43.571Z,459.85
2023-04-09T00:55:54.591Z,459.83
2023-04-09T00:56:05.581Z,459.84
2023-04-09T00:56:16.561Z,459.89
2023-04-09T00:56:27.585Z,459.88
2023-04-09T00:56:38.576Z,459.90
2023-04-09T00:56:49.570Z,459.95
2023-04-09T00:57:00.583Z,459.93
2023-04-09T00:57:11.592Z,459.99
2023-04-09T00:57:22.586Z,459.97
2023-04-09T00:57:33.583Z,459.90
2023-04-09T00:57:44.585Z,459.92
2023-04-09T00:57:55.600Z,459.91
2023-04-09T00:58:06.595Z,459.88
2023-04-09T00:58:17.582Z,459.82
2023-04-09T00:58:28.584Z,459.80
2023-04-09T00:58:39.576Z,459.88
2023-04-09T00:58:50.929Z,459.87
2023-04-09T00:59:02.605Z,459.84
2023-04-09T00:59:13.600Z,459.85
2023-04-09T00:59:24.591Z,459.89
2023-04-09T00:59:35.583Z,459.88
2023-04-09T00:59:47.579Z,459.87
2023-04-09T00:59:58.575Z,459.91
2023-04-09T01:00:09.581Z,459.95
2023-04-09T01:00:20.584Z,459.93
2023-04-09T01:00:31.590Z,460.07
2023-04-09T01:00:42.610Z,460.05
2023-04-09T01:00:54.617Z,460.15
2023-04-09T01:01:06.615Z,460.15
2023-04-09T01:01:17.579Z,460.13
2023-04-09T01:01:28.658Z,460.16
2023-04-09T01:01:39.559Z,460.15
2023-04-09T01:01:50.596Z,460.16
2023-04-09T01:02:01.651Z,460.16
2023-04-09T01:02:12.741Z,460.18
2023-04-09T01:02:23.661Z,460.20
2023-04-09T01:02:34.933Z,460.24
2023-04-09T01:02:46.888Z,460.24
2023-04-09T01:02:57.746Z,460.25
2023-04-09T01:03:08.655Z,460.25
2023-04-09T01:03:19.692Z,460.24
2023-04-09T01:03:31.630Z,460.23
2023-04-09T01:03:42.643Z,460.28
2023-04-09T01:03:53.620Z,460.24
2023-04-09T01:04:04.659Z,460.31
2023-04-09T01:04:16.561Z,460.35
2023-04-09T01:04:27.575Z,460.26
2023-04-09T01:04:38.567Z,460.25
2023-04-09T01:04:49.562Z,460.26
2023-04-09T01:05:00.561Z,460.21
2023-04-09T01:05:11.544Z,460.18
2023-04-09T01:05:22.567Z,460.12
2023-04-09T01:05:33.569Z,460.17
2023-04-09T01:05:44.575Z,460.14
2023-04-09T01:05:55.564Z,460.12
2023-04-09T01:06:06.558Z,460.09
2023-04-09T01:06:17.562Z,460.06
2023-04-09T01:06:28.588Z,460.04
2023-04-09T01:06:39.582Z,460.04
2023-04-09T01:06:50.607Z,460.01
2023-04-09T01:07:01.606Z,460.01
2023-04-09T01:07:12.608Z,459.98
2023-04-09T01:07:23.599Z,459.93
2023-04-09T01:07:34.607Z,459.86
2023-04-09T01:07:46.595Z,459.77
2023-04-09T01:07:57.581Z,459.83
2023-04-09T01:08:08.594Z,459.85
2023-04-09T01:08:19.622Z,459.83
2023-04-09T01:08:31.582Z,459.81
2023-04-09T01:08:42.580Z,459.82
2023-04-09T01:08:53.809Z,459.81
2023-04-09T01:09:04.646Z,459.86
2023-04-09T01:09:16.617Z,459.85
2023-04-09T01:09:27.610Z,459.86
2023-04-09T01:09:38.618Z,459.81
2023-04-09T01:09:50.576Z,459.76
2023-04-09T01:10:01.568Z,459.79
2023-04-09T01:10:12.588Z,459.87
2023-04-09T01:10:23.588Z,459.92
2023-04-09T01:10:34.586Z,459.90
2023-04-09T01:10:45.597Z,459.88
2023-04-09T01:10:56.603Z,459.88
2023-04-09T01:11:07.604Z,459.87
2023-04-09T01:11:19.588Z,459.82
2023-04-09T01:11:30.600Z,459.86
2023-04-09T01:11:41.589Z,459.88
2023-04-09T01:11:52.600Z,459.84
2023-04-09T01:12:03.599Z,459.84
2023-04-09T01:12:15.598Z,459.89
2023-04-09T01:12:26.586Z,459.92
2023-04-09T01:12:37.595Z,459.84
2023-04-09T01:12:48.614Z,459.90
2023-04-09T01:13:00.577Z,459.89
2023-04-09T01:13:11.577Z,459.95
2023-04-09T01:13:22.599Z,459.97
2023-04-09T01:13:33.594Z,459.98
2023-04-09T01:13:44.606Z,459.94
2023-04-09T01:13:55.579Z,459.97
2023-04-09T01:14:07.605Z,460.00
2023-04-09T01:14:18.590Z,460.03
2023-04-09T01:14:29.601Z,460.03
2023-04-09T01:14:40.598Z,460.05
2023-04-09T01:14:51.595Z,460.03
2023-04-09T01:15:02.583Z,460.06
2023-04-09T01:15:13.586Z,460.09
2023-04-09T01:15:24.589Z,460.10
2023-04-09T01:15:35.596Z,460.13
2023-04-09T01:15:46.601Z,460.13
2023-04-09T01:15:57.597Z,460.14
2023-04-09T01:16:08.654Z,460.14
2023-04-09T01:16:20.611Z,460.19
2023-04-09T01:16:32.613Z,460.20
2023-04-09T01:16:44.696Z,460.21
2023-04-09T01:16:56.711Z,460.18
2023-04-09T01:17:07.625Z,460.20
2023-04-09T01:17:19.590Z,460.18
2023-04-09T01:17:30.561Z,460.18
2023-04-09T01:17:41.596Z,460.13
2023-04-09T01:17:52.673Z,460.15
2023-04-09T01:18:04.640Z,460.15
2023-04-09T01:18:15.552Z,460.17
2023-04-09T01:18:26.548Z,460.18
2023-04-09T01:18:37.542Z,460.18
2023-04-09T01:18:48.560Z,460.17
2023-04-09T01:18:59.559Z,460.24
2023-04-09T01:19:10.565Z,460.24
2023-04-09T01:19:21.571Z,460.18
2023-04-09T01:19:32.574Z,460.23
2023-04-09T01:19:43.551Z,460.24
2023-04-09T01:19:54.551Z,460.25
2023-04-09T01:20:05.642Z,460.26
2023-04-09T01:20:17.613Z,460.22
2023-04-09T01:20:29.580Z,460.28
2023-04-09T01:20:40.604Z,460.29
2023-04-09T01:20:51.613Z,460.27
2023-04-09T01:21:02.604Z,460.29
2023-04-09T01:21:14.574Z,460.26
2023-04-09T01:21:25.584Z,460.21
2023-04-09T01:21:36.564Z,460.19
2023-04-09T01:21:47.550Z,460.15
2023-04-09T01:21:58.558Z,460.17
2023-04-09T01:22:09.538Z,460.14
2023-04-09T01:22:20.550Z,460.13
2023-04-09T01:22:31.535Z,460.13
2023-04-09T01:22:42.551Z,460.14
2023-04-09T01:22:53.550Z,460.16
2023-04-09T01:23:04.542Z,460.20
2023-04-09T01:23:15.557Z,460.19
2023-04-09T01:23:26.558Z,460.23
2023-04-09T01:23:37.573Z,460.22
2023-04-09T01:23:48.562Z,460.24
2023-04-09T01:23:59.569Z,460.27
2023-04-09T01:24:10.562Z,460.28
2023-04-09T01:24:21.577Z,460.31
2023-04-09T01:24:32.571Z,460.34
2023-04-09T01:24:43.578Z,460.38
2023-04-09T01:24:54.564Z,460.42
2023-04-09T01:25:05.572Z,460.44
2023-04-09T01:25:16.576Z,460.47
2023-04-09T01:25:27.573Z,460.52
2023-04-09T01:25:38.567Z,460.53
2023-04-09T01:25:49.597Z,460.54
2023-04-09T01:26:01.567Z,460.54
2023-04-09T01:26:12.579Z,460.52
2023-04-09T01:26:23.595Z,460.54
2023-04-09T01:26:34.585Z,460.54
2023-04-09T01:26:45.599Z,460.48
2023-04-09T01:26:56.588Z,460.48
2023-04-09T01:27:07.609Z,460.50
2023-04-09T01:27:19.578Z,460.45
2023-04-09T01:27:30.584Z,460.45
2023-04-09T01:27:41.575Z,460.43
2023-04-09T01:27:52.588Z,460.42
2023-04-09T01:28:03.602Z,460.44
2023-04-09T01:28:14.590Z,460.40
2023-04-09T01:28:25.594Z,460.40
2023-04-09T01:28:37.614Z,460.40
2023-04-09T01:28:48.602Z,460.37
2023-04-09T01:28:59.597Z,460.37
2023-04-09T01:29:10.583Z,460.36
2023-04-09T01:29:21.599Z,460.37
2023-04-09T01:29:32.589Z,460.35
2023-04-09T01:29:43.576Z,460.34
2023-04-09T01:29:54.576Z,460.32
2023-04-09T01:30:05.571Z,460.30
2023-04-09T01:30:16.548Z,460.30
2023-04-09T01:30:27.586Z,460.26
2023-04-09T01:30:38.620Z,460.22
2023-04-09T01:30:50.616Z,460.20
2023-04-09T01:31:02.680Z,460.21
2023-04-09T01:31:13.704Z,460.20
2023-04-09T01:31:25.621Z,460.17
2023-04-09T01:31:37.610Z,460.18
2023-04-09T01:31:48.599Z,460.18
2023-04-09T01:31:59.593Z,460.12
2023-04-09T01:32:10.599Z,460.11
2023-04-09T01:32:21.601Z,460.07
2023-04-09T01:32:33.628Z,460.02
2023-04-09T01:32:44.679Z,459.99
2023-04-09T01:32:56.588Z,459.97
2023-04-09T01:33:07.592Z,459.96
2023-04-09T01:33:18.598Z,459.95
2023-04-09T01:33:29.587Z,459.94
2023-04-09T01:33:40.589Z,459.96
2023-04-09T01:33:51.587Z,459.99
2023-04-09T01:34:02.597Z,459.98
2023-04-09T01:34:13.589Z,459.98
2023-04-09T01:34:24.596Z,459.96
2023-04-09T01:34:35.576Z,459.96
2023-04-09T01:34:46.588Z,460.00
2023-04-09T01:34:57.580Z,459.98
2023-04-09T01:35:08.582Z,460.04
2023-04-09T01:35:19.584Z,460.05
2023-04-09T01:35:30.655Z,460.09
2023-04-09T01:35:41.691Z,460.07
2023-04-09T01:35:52.625Z,460.08
2023-04-09T01:36:03.645Z,460.08
2023-04-09T01:36:15.613Z,460.09
2023-04-09T01:36:27.600Z,460.09
2023-04-09T01:36:38.603Z,460.13
2023-04-09T01:36:49.596Z,460.13
2023-04-09T01:37:00.589Z,460.14
2023-04-09T01:37:11.585Z,460.13
2023-04-09T01:37:22.589Z,460.16
2023-04-09T01:37:33.586Z,460.17
2023-04-09T01:37:44.583Z,460.15
2023-04-09T01:37:55.598Z,460.14
2023-04-09T01:38:06.570Z,460.14
2023-04-09T01:38:17.570Z,460.11
2023-04-09T01:38:28.565Z,460.09
2023-04-09T01:38:40.581Z,460.09
2023-04-09T01:38:51.709Z,460.06
2023-04-09T01:39:02.576Z,460.01
2023-04-09T01:39:13.565Z,459.96
2023-04-09T01:39:24.587Z,459.94
2023-04-09T01:39:35.594Z,459.92
2023-04-09T01:39:46.590Z,459.91
2023-04-09T01:39:57.591Z,459.92
2023-04-09T01:40:08.582Z,459.91
2023-04-09T01:40:19.577Z,459.89
2023-04-09T01:40:30.571Z,459.92
2023-04-09T01:40:41.574Z,459.97
2023-04-09T01:40:52.543Z,459.96
2023-04-09T01:41:03.532Z,459.97
2023-04-09T01:41:14.530Z,459.97
2023-04-09T01:41:25.644Z,459.97
2023-04-09T01:41:37.604Z,459.95
2023-04-09T01:41:48.600Z,459.92
2023-04-09T01:42:00.613Z,459.90
2023-04-09T01:42:12.612Z,459.85
2023-04-09T01:42:24.564Z,459.85
2023-04-09T01:42:35.601Z,459.85
2023-04-09T01:42:46.596Z,459.82
2023-04-09T01:42:57.583Z,459.81
2023-04-09T01:43:08.576Z,459.83
2023-04-09T01:43:19.567Z,459.87
2023-04-09T01:43:30.566Z,459.91
2023-04-09T01:43:41.566Z,459.92
2023-04-09T01:43:52.549Z,459.92
2023-04-09T01:44:03.572Z,459.92
2023-04-09T01:44:14.561Z,459.93
2023-04-09T01:44:25.637Z,459.90
2023-04-09T01:44:37.613Z,459.92
2023-04-09T01:44:49.581Z,459.90
2023-04-09T01:45:00.583Z,459.89
2023-04-09T01:45:11.607Z,459.88
2023-04-09T01:45:22.601Z,459.88
2023-04-09T01:45:33.615Z,459.84
2023-04-09T01:45:45.612Z,459.81
2023-04-09T01:45:57.598Z,459.72
2023-04-09T01:46:08.653Z,459.72
2023-04-09T01:46:20.646Z,459.67
2023-04-09T01:46:32.643Z,459.69
2023-04-09T01:46:44.601Z,459.67
2023-04-09T01:46:55.583Z,459.67
2023-04-09T01:47:06.592Z,459.71
2023-04-09T01:47:17.589Z,459.76
2023-04-09T01:47:28.582Z,459.72
2023-04-09T01:47:39.604Z,459.74
2023-04-09T01:47:51.593Z,459.72
2023-04-09T01:48:02.613Z,459.73
2023-04-09T01:48:14.588Z,459.70
2023-04-09T01:48:25.574Z,459.70
2023-04-09T01:48:36.576Z,459.67
2023-04-09T01:48:47.590Z,459.63
2023-04-09T01:48:59.612Z,459.65
2023-04-09T01:49:11.597Z,459.63
2023-04-09T01:49:22.586Z,459.59
2023-04-09T01:49:33.589Z,459.58
2023-04-09T01:49:44.580Z,459.54
2023-04-09T01:49:55.572Z,459.52
2023-04-09T01:50:06.570Z,459.50
2023-04-09T01:50:17.556Z,459.51
2023-04-09T01:50:28.532Z,459.51
2023-04-09T01:50:39.560Z,459.51
2023-04-09T01:50:50.584Z,459.51
2023-04-09T01:51:01.568Z,459.50
2023-04-09T01:51:12.570Z,459.51
2023-04-09T01:51:23.595Z,459.52
2023-04-09T01:51:34.604Z,459.49
2023-04-09T01:51:45.604Z,459.48
2023-04-09T01:51:57.580Z,459.48
2023-04-09T01:52:08.566Z,459.51
2023-04-09T01:52:19.570Z,459.50
2023-04-09T01:52:30.570Z,459.52
2023-04-09T01:52:41.579Z,459.57
2023-04-09T01:52:52.601Z,459.61
2023-04-09T01:53:04.577Z,459.61
2023-04-09T01:53:15.585Z,459.59
2023-04-09T01:53:26.568Z,459.61
2023-04-09T01:53:37.570Z,459.59
2023-04-09T01:53:48.570Z,459.53
2023-04-09T01:53:59.561Z,459.53
2023-04-09T01:54:10.577Z,459.58
2023-04-09T01:54:21.575Z,459.61
2023-04-09T01:54:32.575Z,459.60
2023-04-09T01:54:43.588Z,459.61
2023-04-09T01:54:54.585Z,459.63
2023-04-09T01:55:05.576Z,459.65
2023-04-09T01:55:16.580Z,459.66
2023-04-09T01:55:27.569Z,459.69
2023-04-09T01:55:38.587Z,459.66
2023-04-09T01:55:49.580Z,459.66
2023-04-09T01:56:00.583Z,459.64
2023-04-09T01:56:11.583Z,459.64
2023-04-09T01:56:22.615Z,459.62
2023-04-09T01:56:33.609Z,459.58
2023-04-09T01:56:44.601Z,459.52
2023-04-09T01:56:55.605Z,459.47
2023-04-09T01:57:06.590Z,459.49
2023-04-09T01:57:18.569Z,459.50
2023-04-09T01:57:29.578Z,459.56
2023-04-09T01:57:40.553Z,459.57
2023-04-09T01:57:51.552Z,459.64
2023-04-09T01:58:02.640Z,459.66
2023-04-09T01:58:14.601Z,459.70
2023-04-09T01:58:25.604Z,459.69
2023-04-09T01:58:37.577Z,459.71
2023-04-09T01:58:48.577Z,459.73
2023-04-09T01:58:59.558Z,459.71
2023-04-09T01:59:10.593Z,459.78
2023-04-09T01:59:21.591Z,459.70
2023-04-09T01:59:32.592Z,459.70
2023-04-09T01:59:43.579Z,459.70
2023-04-09T01:59:54.578Z,459.70
2023-04-09T02:00:05.586Z,459.77
2023-04-09T02:00:17.592Z,459.79
2023-04-09T02:00:28.569Z,459.80
2023-04-09T02:00:39.579Z,459.77
2023-04-09T02:00:50.582Z,459.77
2023-04-09T02:01:01.626Z,459.80
2023-04-09T02:01:13.678Z,459.82
2023-04-09T02:01:25.663Z,459.82
2023-04-09T02:01:36.621Z,459.82
2023-04-09T02:01:47.707Z,459.88
2023-04-09T02:01:59.742Z,459.91
2023-04-09T02:02:11.648Z,459.85
2023-04-09T02:02:22.714Z,459.84
2023-04-09T02:02:33.677Z,459.82
2023-04-09T02:02:45.717Z,459.78
2023-04-09T02:02:56.785Z,459.79
2023-04-09T02:03:07.642Z,459.79
2023-04-09T02:03:18.675Z,459.71
2023-04-09T02:03:29.668Z,459.70
2023-04-09T02:03:41.732Z,459.75
2023-04-09T02:03:52.623Z,459.74
2023-04-09T02:04:03.652Z,459.79
2023-04-09T02:04:14.591Z,459.79
2023-04-09T02:04:25.603Z,459.83
2023-04-09T02:04:36.601Z,459.86
2023-04-09T02:04:47.603Z,459.89
2023-04-09T02:04:58.594Z,459.86
2023-04-09T02:05:09.590Z,459.88
2023-04-09T02:05:20.593Z,459.94
2023-04-09T02:05:31.588Z,459.97
2023-04-09T02:05:42.588Z,459.99
2023-04-09T02:05:53.571Z,459.96
2023-04-09T02:06:04.584Z,459.98
2023-04-09T02:06:15.602Z,460.08
2023-04-09T02:06:26.610Z,460.17
2023-04-09T02:06:37.610Z,460.20
2023-04-09T02:06:48.620Z,460.25
2023-04-09T02:07:00.587Z,460.27
2023-04-09T02:07:11.569Z,460.23
2023-04-09T02:07:22.572Z,460.24
2023-04-09T02:07:33.570Z,460.26
2023-04-09T02:07:44.572Z,460.25
2023-04-09T02:07:55.561Z,460.27
2023-04-09T02:08:06.555Z,460.28
2023-04-09T02:08:17.574Z,460.25
2023-04-09T02:08:28.572Z,460.27
2023-04-09T02:08:39.571Z,460.34
2023-04-09T02:08:50.849Z,460.35
2023-04-09T02:09:01.551Z,460.34
2023-04-09T02:09:12.584Z,460.30
2023-04-09T02:09:23.578Z,460.33
2023-04-09T02:09:34.576Z,460.37
2023-04-09T02:09:45.583Z,460.34
2023-04-09T02:09:56.588Z,460.33
2023-04-09T02:10:07.607Z,460.32
2023-04-09T02:10:19.571Z,460.30
2023-04-09T02:10:30.552Z,460.34
2023-04-09T02:10:41.582Z,460.30
2023-04-09T02:10:52.575Z,460.31
2023-04-09T02:11:03.559Z,460.32
2023-04-09T02:11:14.607Z,460.35
2023-04-09T02:11:25.595Z,460.36
2023-04-09T02:11:36.594Z,460.38
2023-04-09T02:11:47.591Z,460.37
2023-04-09T02:11:58.604Z,460.37
2023-04-09T02:12:09.583Z,460.40
2023-04-09T02:12:20.611Z,460.39
2023-04-09T02:12:31.613Z,460.37
2023-04-09T02:12:42.609Z,460.41
2023-04-09T02:12:53.599Z,460.38
2023-04-09T02:13:04.601Z,460.37
2023-04-09T02:13:16.568Z,460.37
2023-04-09T02:13:27.574Z,460.38
2023-04-09T02:13:39.587Z,460.35
2023-04-09T02:13:50.602Z,460.30
2023-04-09T02:14:01.602Z,460.29
2023-04-09T02:14:12.608Z,460.24
2023-04-09T02:14:24.575Z,460.17
2023-04-09T02:14:35.563Z,460.07
2023-04-09T02:14:46.567Z,459.98
2023-04-09T02:14:57.569Z,459.94
2023-04-09T02:15:08.559Z,459.88
2023-04-09T02:15:19.564Z,459.87
2023-04-09T02:15:30.701Z,459.82
2023-04-09T02:15:42.617Z,459.84
2023-04-09T02:15:53.626Z,459.84
2023-04-09T02:16:05.621Z,459.89
2023-04-09T02:16:17.705Z,459.94
2023-04-09T02:16:29.637Z,459.97
2023-04-09T02:16:41.623Z,459.95
2023-04-09T02:16:53.580Z,459.96
2023-04-09T02:17:04.582Z,459.99
2023-04-09T02:17:15.580Z,460.00
2023-04-09T02:17:26.613Z,459.98
2023-04-09T02:17:38.602Z,459.99
2023-04-09T02:17:49.637Z,459.99
2023-04-09T02:18:01.623Z,459.98
2023-04-09T02:18:13.617Z,459.98
2023-04-09T02:18:25.613Z,459.97
2023-04-09T02:18:37.604Z,459.97
2023-04-09T02:18:48.612Z,460.00
2023-04-09T02:18:59.606Z,460.02
2023-04-09T02:19:11.602Z,460.03
2023-04-09T02:19:22.605Z,460.04
2023-04-09T02:19:33.613Z,460.06